createdAt,value
2017-04-06T00:00:56.843Z,7.08
2017-04-06T00:02:09.094Z,7
2017-04-06T00:03:21.611Z,6.85
2017-04-06T00:04:33.813Z,6.8
2017-04-06T00:05:46.020Z,6.8
2017-04-06T00:06:58.245Z,6.77
2017-04-06T00:08:11.023Z,6.77
2017-04-06T00:09:23.540Z,6.7
2017-04-06T00:10:36.037Z,6.77
2017-04-06T00:11:48.553Z,6.68
2017-04-06T00:13:01.078Z,6.6
2017-04-06T00:14:13.577Z,6.65
2017-04-06T00:15:26.123Z,6.62
2017-04-06T00:16:38.648Z,6.59
2017-04-06T00:17:51.204Z,6.64
2017-04-06T00:19:03.430Z,6.59
2017-04-06T00:20:15.678Z,6.54
2017-04-06T00:21:28.192Z,6.56
2017-04-06T00:22:40.745Z,6.53
2017-04-06T00:23:53.262Z,6.5
2017-04-06T00:25:05.208Z,6.52
2017-04-06T00:26:17.738Z,6.47
2017-04-06T00:27:30.297Z,6.5
2017-04-06T00:28:42.821Z,6.47
2017-04-06T00:29:55.678Z,6.53
2017-04-06T00:31:07.942Z,6.47
2017-04-06T00:32:20.458Z,6.46
2017-04-06T00:33:33.022Z,6.44
2017-04-06T00:34:45.530Z,6.49
2017-04-06T00:35:58.327Z,6.54
2017-04-06T00:37:10.249Z,6.53
2017-04-06T00:38:22.771Z,6.46
2017-04-06T00:39:35.316Z,6.54
2017-04-06T00:40:47.838Z,6.44
2017-04-06T00:42:00.047Z,6.49
2017-04-06T00:43:12.569Z,6.53
2017-04-06T00:44:25.089Z,6.5
2017-04-06T00:45:37.597Z,6.52
2017-04-06T00:46:50.389Z,6.44
2017-04-06T00:48:02.578Z,6.52
2017-04-06T00:49:15.109Z,6.53
2017-04-06T00:50:27.654Z,6.49
2017-04-06T00:51:39.873Z,6.54
2017-04-06T00:52:52.368Z,6.52
2017-04-06T00:54:04.610Z,6.52
2017-04-06T00:55:17.140Z,6.54
2017-04-06T00:56:29.680Z,6.52
2017-04-06T00:57:41.882Z,6.53
2017-04-06T00:58:54.402Z,6.53
2017-04-06T01:00:06.936Z,6.52
2017-04-06T01:01:19.161Z,6.47
2017-04-06T01:02:31.690Z,6.56
2017-04-06T01:03:44.231Z,6.52
2017-04-06T01:04:56.773Z,6.56
2017-04-06T01:06:08.695Z,6.49
2017-04-06T01:07:21.236Z,6.53
2017-04-06T01:08:33.441Z,6.52
2017-04-06T01:09:45.982Z,6.53
2017-04-06T01:10:58.525Z,6.52
2017-04-06T01:12:11.031Z,6.53
2017-04-06T01:13:23.266Z,6.49
2017-04-06T01:14:35.800Z,6.5
2017-04-06T01:15:48.336Z,6.5
2017-04-06T01:17:00.842Z,6.49
2017-04-06T01:18:13.357Z,6.5
2017-04-06T01:19:25.899Z,6.5
2017-04-06T01:20:38.399Z,6.54
2017-04-06T01:21:50.638Z,6.5
2017-04-06T01:23:03.188Z,6.47
2017-04-06T01:24:16.007Z,6.49
2017-04-06T01:25:28.553Z,6.53
2017-04-06T01:26:41.082Z,6.52
2017-04-06T01:27:53.609Z,6.49
2017-04-06T01:29:06.137Z,6.53
2017-04-06T01:30:18.721Z,6.47
2017-04-06T01:31:31.266Z,6.5
2017-04-06T01:32:43.778Z,6.43
2017-04-06T01:33:55.980Z,6.46
2017-04-06T01:35:08.522Z,6.47
2017-04-06T01:36:21.050Z,6.38
2017-04-06T01:37:33.592Z,6.43
2017-04-06T01:38:45.814Z,6.43
2017-04-06T01:39:58.354Z,6.46
2017-04-06T01:41:10.272Z,6.36
2017-04-06T01:42:22.779Z,6.36
2017-04-06T01:43:35.292Z,6.28
2017-04-06T01:44:47.850Z,6.26
2017-04-06T01:46:00.708Z,6.29
2017-04-06T01:47:12.626Z,6.22
2017-04-06T01:48:25.133Z,6.22
2017-04-06T01:49:37.668Z,6.22
2017-04-06T01:50:50.164Z,6.16
2017-04-06T01:52:02.714Z,6.1
2017-04-06T01:53:15.245Z,6.1
2017-04-06T01:54:27.167Z,6.09
2017-04-06T01:55:39.402Z,6.09
2017-04-06T01:56:51.619Z,6.09
2017-04-06T01:58:04.149Z,6.02
2017-04-06T01:59:16.686Z,5.87
2017-04-06T02:00:29.207Z,5.94
2017-04-06T02:01:41.756Z,5.91
2017-04-06T02:02:54.277Z,5.88
2017-04-06T02:04:06.780Z,5.83
2017-04-06T02:05:19.015Z,5.74
2017-04-06T02:06:31.539Z,5.72
2017-04-06T02:07:44.061Z,5.76
2017-04-06T02:08:56.602Z,5.76
2017-04-06T02:10:08.203Z,5.64
2017-04-06T02:11:20.746Z,5.64
2017-04-06T02:12:33.276Z,5.7
2017-04-06T02:13:45.515Z,5.55
2017-04-06T02:14:58.015Z,5.61
2017-04-06T02:16:10.283Z,5.61
2017-04-06T02:17:22.833Z,5.58
2017-04-06T02:18:35.681Z,5.56
2017-04-06T02:19:48.202Z,5.56
2017-04-06T02:21:00.100Z,5.41
2017-04-06T02:22:12.637Z,5.52
2017-04-06T02:23:25.172Z,5.46
2017-04-06T02:24:37.729Z,5.41
2017-04-06T02:25:50.246Z,5.47
2017-04-06T02:27:02.770Z,5.43
2017-04-06T02:28:15.342Z,5.4
2017-04-06T02:29:27.869Z,5.37
2017-04-06T02:30:40.409Z,5.36
2017-04-06T02:31:52.933Z,5.37
2017-04-06T02:33:05.154Z,5.38
2017-04-06T02:34:17.698Z,5.34
2017-04-06T02:35:30.238Z,5.38
2017-04-06T02:36:42.768Z,5.23
2017-04-06T02:37:55.330Z,5.22
2017-04-06T02:39:07.878Z,5.28
2017-04-06T02:40:20.704Z,5.2
2017-04-06T02:41:33.225Z,5.34
2017-04-06T02:42:45.745Z,5.2
2017-04-06T02:43:57.942Z,5.28
2017-04-06T02:45:10.458Z,5.19
2017-04-06T02:46:23.304Z,5.2
2017-04-06T02:47:35.533Z,5.15
2017-04-06T02:48:48.031Z,5.18
2017-04-06T02:50:00.546Z,5.18
2017-04-06T02:51:13.064Z,5.15
2017-04-06T02:52:25.572Z,5.16
2017-04-06T02:53:38.102Z,5.08
2017-04-06T02:54:50.677Z,5.12
2017-04-06T02:56:03.222Z,5.07
2017-04-06T02:57:15.441Z,5.08
2017-04-06T02:58:27.968Z,5.13
2017-04-06T02:59:40.469Z,5.01
2017-04-06T03:00:52.689Z,5.02
2017-04-06T03:02:04.926Z,5.04
2017-04-06T03:03:17.451Z,4.97
2017-04-06T03:04:29.972Z,5.01
2017-04-06T03:05:42.485Z,4.98
2017-04-06T03:06:54.714Z,5.02
2017-04-06T03:08:07.209Z,5
2017-04-06T03:09:19.423Z,5.02
2017-04-06T03:10:31.645Z,4.98
2017-04-06T03:11:44.176Z,4.95
2017-04-06T03:12:56.964Z,4.98
2017-04-06T03:14:09.464Z,5.04
2017-04-06T03:15:21.364Z,4.94
2017-04-06T03:16:33.938Z,4.95
2017-04-06T03:17:46.157Z,4.95
2017-04-06T03:18:58.698Z,5
2017-04-06T03:20:10.927Z,4.92
2017-04-06T03:21:23.469Z,4.97
2017-04-06T03:22:36.007Z,4.92
2017-04-06T03:23:48.516Z,4.92
2017-04-06T03:25:01.049Z,4.92
2017-04-06T03:26:13.570Z,4.92
2017-04-06T03:27:26.090Z,4.92
2017-04-06T03:28:38.640Z,4.89
2017-04-06T03:29:50.561Z,4.9
2017-04-06T03:31:03.078Z,4.92
2017-04-06T03:32:15.575Z,4.94
2017-04-06T03:33:28.099Z,4.94
2017-04-06T03:34:40.595Z,4.87
2017-04-06T03:35:53.091Z,4.9
2017-04-06T03:37:05.621Z,4.92
2017-04-06T03:38:18.133Z,4.9
2017-04-06T03:39:30.649Z,4.94
2017-04-06T03:40:43.200Z,4.98
2017-04-06T03:41:55.730Z,4.94
2017-04-06T03:43:07.941Z,5.07
2017-04-06T03:44:20.454Z,5.04
2017-04-06T03:45:33.226Z,5.01
2017-04-06T03:46:45.731Z,5.02
2017-04-06T03:47:58.270Z,5.07
2017-04-06T03:49:10.795Z,5.02
2017-04-06T03:50:22.709Z,5.1
2017-04-06T03:51:34.631Z,5.05
2017-04-06T03:52:47.183Z,5.04
2017-04-06T03:53:59.705Z,5.08
2017-04-06T03:55:12.192Z,5.04
2017-04-06T03:56:24.113Z,5.15
2017-04-06T03:57:36.038Z,5.1
2017-04-06T03:58:48.566Z,4.98
2017-04-06T04:00:01.087Z,5.07
2017-04-06T04:01:13.586Z,5
2017-04-06T04:02:26.119Z,5.05
2017-04-06T04:03:38.622Z,5
2017-04-06T04:04:50.539Z,5.02
2017-04-06T04:06:03.042Z,5
2017-04-06T04:07:15.285Z,5.01
2017-04-06T04:08:27.480Z,4.97
2017-04-06T04:09:40.023Z,5.1
2017-04-06T04:10:52.569Z,5.05
2017-04-06T04:12:05.068Z,5.08
2017-04-06T04:13:17.270Z,5.13
2017-04-06T04:14:29.769Z,5.15
2017-04-06T04:15:41.979Z,5.15
2017-04-06T04:16:54.477Z,5.15
2017-04-06T04:18:06.998Z,5.16
2017-04-06T04:19:19.498Z,5.25
2017-04-06T04:20:31.744Z,5.33
2017-04-06T04:21:43.962Z,5.33
2017-04-06T04:22:56.467Z,5.36
2017-04-06T04:24:09.030Z,5.34
2017-04-06T04:25:21.523Z,5.36
2017-04-06T04:26:34.049Z,5.37
2017-04-06T04:27:46.593Z,5.47
2017-04-06T04:28:59.110Z,5.52
2017-04-06T04:30:11.627Z,5.49
2017-04-06T04:31:24.156Z,5.4
2017-04-06T04:32:36.074Z,5.52
2017-04-06T04:33:48.587Z,5.62
2017-04-06T04:35:01.108Z,5.56
2017-04-06T04:36:13.633Z,5.65
2017-04-06T04:37:26.136Z,5.64
2017-04-06T04:38:38.682Z,5.65
2017-04-06T04:39:51.224Z,5.62
2017-04-06T04:41:03.438Z,5.62
2017-04-06T04:42:15.701Z,5.72
2017-04-06T04:43:28.261Z,5.73
2017-04-06T04:44:40.778Z,5.76
2017-04-06T04:45:53.319Z,5.74
2017-04-06T04:47:05.829Z,5.77
2017-04-06T04:48:18.345Z,5.77
2017-04-06T04:49:30.897Z,5.76
2017-04-06T04:50:43.440Z,5.76
2017-04-06T04:51:55.686Z,5.74
2017-04-06T04:53:08.222Z,5.67
2017-04-06T04:54:20.775Z,5.64
2017-04-06T04:55:33.292Z,5.59
2017-04-06T04:56:45.817Z,5.69
2017-04-06T04:57:58.333Z,5.67
2017-04-06T04:59:10.877Z,5.58
2017-04-06T05:00:23.422Z,5.56
2017-04-06T05:01:35.948Z,5.55
2017-04-06T05:02:48.467Z,5.58
2017-04-06T05:04:00.968Z,5.61
2017-04-06T05:05:12.891Z,5.61
2017-04-06T05:06:25.110Z,5.47
2017-04-06T05:07:37.630Z,5.46
2017-04-06T05:08:50.151Z,5.41
2017-04-06T05:10:02.664Z,5.4
2017-04-06T05:11:15.202Z,5.37
2017-04-06T05:12:28.067Z,5.34
2017-04-06T05:13:40.605Z,5.38
2017-04-06T05:14:53.155Z,5.36
2017-04-06T05:16:05.681Z,5.33
2017-04-06T05:17:18.247Z,5.36
2017-04-06T05:18:30.464Z,5.26
2017-04-06T05:19:42.980Z,5.28
2017-04-06T05:20:55.219Z,5.25
2017-04-06T05:22:07.753Z,5.23
2017-04-06T05:23:20.519Z,5.19
2017-04-06T05:24:33.056Z,5.2
2017-04-06T05:25:45.572Z,5.18
2017-04-06T05:26:58.114Z,5.15
2017-04-06T05:28:10.631Z,5.18
2017-04-06T05:29:23.178Z,5.16
2017-04-06T05:30:35.712Z,5.16
2017-04-06T05:31:48.266Z,5.18
2017-04-06T05:33:00.791Z,5.12
2017-04-06T05:34:13.333Z,5.15
2017-04-06T05:35:25.542Z,5.1
2017-04-06T05:36:38.061Z,5.1
2017-04-06T05:37:50.583Z,5.1
2017-04-06T05:39:03.105Z,5.1
2017-04-06T05:40:15.647Z,5.16
2017-04-06T05:41:28.166Z,5.08
2017-04-06T05:42:40.386Z,5.16
2017-04-06T05:43:52.925Z,5.12
2017-04-06T05:45:05.472Z,5.16
2017-04-06T05:46:18.017Z,5.2
2017-04-06T05:47:30.573Z,5.19
2017-04-06T05:48:43.113Z,5.2
2017-04-06T05:49:55.662Z,5.23
2017-04-06T05:51:07.904Z,5.26
2017-04-06T05:52:20.420Z,5.23
2017-04-06T05:53:32.949Z,5.28
2017-04-06T05:54:45.438Z,5.23
2017-04-06T05:55:57.962Z,5.31
2017-04-06T05:57:10.482Z,5.29
2017-04-06T05:58:23.036Z,5.41
2017-04-06T05:59:35.579Z,5.36
2017-04-06T06:00:47.803Z,5.36
2017-04-06T06:02:00.353Z,5.46
2017-04-06T06:03:12.867Z,5.41
2017-04-06T06:04:25.063Z,5.43
2017-04-06T06:05:37.279Z,5.51
2017-04-06T06:06:49.211Z,5.58
2017-04-06T06:08:01.701Z,5.56
2017-04-06T06:09:14.217Z,5.62
2017-04-06T06:10:26.120Z,5.59
2017-04-06T06:11:38.663Z,5.67
2017-04-06T06:12:51.209Z,5.69
2017-04-06T06:14:03.409Z,5.7
2017-04-06T06:15:15.632Z,5.77
2017-04-06T06:16:28.172Z,5.74
2017-04-06T06:17:40.697Z,5.87
2017-04-06T06:18:53.234Z,5.91
2017-04-06T06:20:05.763Z,5.94
2017-04-06T06:21:18.010Z,5.91
2017-04-06T06:22:30.533Z,6.06
2017-04-06T06:23:43.068Z,5.99
2017-04-06T06:24:55.613Z,6.06
2017-04-06T06:26:07.840Z,6.1
2017-04-06T06:27:20.055Z,6.19
2017-04-06T06:28:32.627Z,6.13
2017-04-06T06:29:45.152Z,6.22
2017-04-06T06:30:57.377Z,6.17
2017-04-06T06:32:09.949Z,6.26
2017-04-06T06:33:21.886Z,6.28
2017-04-06T06:34:34.385Z,6.32
2017-04-06T06:35:46.884Z,6.43
2017-04-06T06:36:59.431Z,6.46
2017-04-06T06:38:12.001Z,6.5
2017-04-06T06:39:24.744Z,6.49
2017-04-06T06:40:37.283Z,6.47
2017-04-06T06:41:49.816Z,6.52
2017-04-06T06:43:02.332Z,6.54
2017-04-06T06:44:14.878Z,6.5
2017-04-06T06:45:27.402Z,6.6
2017-04-06T06:46:39.337Z,6.57
2017-04-06T06:47:51.583Z,6.7
2017-04-06T06:49:04.086Z,6.71
2017-04-06T06:50:16.628Z,6.64
2017-04-06T06:51:29.183Z,6.78
2017-04-06T06:52:41.741Z,6.8
2017-04-06T06:53:54.300Z,6.77
2017-04-06T06:55:06.837Z,6.82
2017-04-06T06:56:19.415Z,6.93
2017-04-06T06:57:31.928Z,7.11
2017-04-06T06:58:44.462Z,7.28
2017-04-06T06:59:56.374Z,7.44
2017-04-06T07:01:08.892Z,7.59
2017-04-06T07:02:21.087Z,7.87
2017-04-06T07:03:33.632Z,8.01
2017-04-06T07:04:46.162Z,8.27
2017-04-06T07:05:58.682Z,8.31
2017-04-06T07:07:11.225Z,8.27
2017-04-06T07:08:23.442Z,8.31
2017-04-06T07:09:35.963Z,8.39
2017-04-06T07:10:48.508Z,8.35
2017-04-06T07:12:00.755Z,8.49
2017-04-06T07:13:13.304Z,8.38
2017-04-06T07:14:25.853Z,8.38
2017-04-06T07:15:38.076Z,8.35
2017-04-06T07:16:50.622Z,8.32
2017-04-06T07:18:03.167Z,8.24
2017-04-06T07:19:15.716Z,8.24
2017-04-06T07:20:27.950Z,8.24
2017-04-06T07:21:40.156Z,8.27
2017-04-06T07:22:52.718Z,8.39
2017-04-06T07:24:05.260Z,8.35
2017-04-06T07:25:17.755Z,8.5
2017-04-06T07:26:29.704Z,8.54
2017-04-06T07:27:42.276Z,8.54
2017-04-06T07:28:54.793Z,8.54
2017-04-06T07:30:07.014Z,8.66
2017-04-06T07:31:19.239Z,8.64
2017-04-06T07:32:31.485Z,8.68
2017-04-06T07:33:43.685Z,8.74
2017-04-06T07:34:55.885Z,8.87
2017-04-06T07:36:08.148Z,8.9
2017-04-06T07:37:20.700Z,9.02
2017-04-06T07:38:32.920Z,9.18
2017-04-06T07:39:45.140Z,9.15
2017-04-06T07:40:57.678Z,9.42
2017-04-06T07:42:10.252Z,9.49
2017-04-06T07:43:22.798Z,9.66
2017-04-06T07:44:35.341Z,9.84
2017-04-06T07:45:47.874Z,10.09
2017-04-06T07:47:00.108Z,10.33
2017-04-06T07:48:12.356Z,10.39
2017-04-06T07:49:24.574Z,10.65
2017-04-06T07:50:37.101Z,10.76
2017-04-06T07:51:49.620Z,10.95
2017-04-06T07:53:02.137Z,11.12
2017-04-06T07:54:14.669Z,11.19
2017-04-06T07:55:27.211Z,11.2
2017-04-06T07:56:39.757Z,11.23
2017-04-06T07:57:52.281Z,11.18
2017-04-06T07:59:04.799Z,10.97
2017-04-06T08:00:17.022Z,10.89
2017-04-06T08:01:28.637Z,10.77
2017-04-06T08:02:41.183Z,10.72
2017-04-06T08:03:53.711Z,10.46
2017-04-06T08:05:06.275Z,10.33
2017-04-06T08:06:18.842Z,10.18
2017-04-06T08:07:31.095Z,10.13
2017-04-06T08:08:43.634Z,10.03
2017-04-06T08:09:56.188Z,9.88
2017-04-06T08:11:08.729Z,9.81
2017-04-06T08:12:20.657Z,9.74
2017-04-06T08:13:33.193Z,9.76
2017-04-06T08:14:45.725Z,9.64
2017-04-06T08:15:58.259Z,9.52
2017-04-06T08:17:10.480Z,9.49
2017-04-06T08:18:23.038Z,9.44
2017-04-06T08:19:34.681Z,9.33
2017-04-06T08:20:47.243Z,9.3
2017-04-06T08:21:59.464Z,9.31
2017-04-06T08:23:11.997Z,9.33
2017-04-06T08:24:24.516Z,9.27
2017-04-06T08:25:37.009Z,9.24
2017-04-06T08:26:49.551Z,9.26
2017-04-06T08:28:02.094Z,9.3
2017-04-06T08:29:14.314Z,9.19
2017-04-06T08:30:26.248Z,9.19
2017-04-06T08:31:38.492Z,9.27
2017-04-06T08:32:51.055Z,9.31
2017-04-06T08:34:03.591Z,9.22
2017-04-06T08:35:15.556Z,9.16
2017-04-06T08:36:27.793Z,9.15
2017-04-06T08:37:40.318Z,9.18
2017-04-06T08:38:52.569Z,9.16
2017-04-06T08:40:05.094Z,9.27
2017-04-06T08:41:17.627Z,9.27
2017-04-06T08:42:29.874Z,9.3
2017-04-06T08:43:42.090Z,9.3
2017-04-06T08:44:54.615Z,9.27
2017-04-06T08:46:07.166Z,9.33
2017-04-06T08:47:19.715Z,9.37
2017-04-06T08:48:31.961Z,9.31
2017-04-06T08:49:44.508Z,9.45
2017-04-06T08:50:56.751Z,9.52
2017-04-06T08:52:09.311Z,9.47
2017-04-06T08:53:21.847Z,9.48
2017-04-06T08:54:34.064Z,9.47
2017-04-06T08:55:46.582Z,9.47
2017-04-06T08:56:59.106Z,9.51
2017-04-06T08:58:11.342Z,9.49
2017-04-06T08:59:23.579Z,9.45
2017-04-06T09:00:36.116Z,9.56
2017-04-06T09:01:48.646Z,9.51
2017-04-06T09:03:00.875Z,9.59
2017-04-06T09:04:13.381Z,9.59
2017-04-06T09:05:25.899Z,9.58
2017-04-06T09:06:38.096Z,9.73
2017-04-06T09:07:50.619Z,9.8
2017-04-06T09:09:03.162Z,9.74
2017-04-06T09:10:15.683Z,9.82
2017-04-06T09:11:28.232Z,9.85
2017-04-06T09:12:40.467Z,9.84
2017-04-06T09:13:52.979Z,9.85
2017-04-06T09:15:04.964Z,10.02
2017-04-06T09:16:17.507Z,10.1
2017-04-06T09:17:29.462Z,10.06
2017-04-06T09:18:41.658Z,10.13
2017-04-06T09:19:54.200Z,10.1
2017-04-06T09:21:06.414Z,10.18
2017-04-06T09:22:19.272Z,10.3
2017-04-06T09:23:31.792Z,10.31
2017-04-06T09:24:44.026Z,10.36
2017-04-06T09:25:56.551Z,10.41
2017-04-06T09:27:09.069Z,10.42
2017-04-06T09:28:21.318Z,10.41
2017-04-06T09:29:33.564Z,10.51
2017-04-06T09:30:46.114Z,10.55
2017-04-06T09:31:58.359Z,10.58
2017-04-06T09:33:10.910Z,10.68
2017-04-06T09:34:23.430Z,10.69
2017-04-06T09:35:35.368Z,10.8
2017-04-06T09:36:47.896Z,10.77
2017-04-06T09:38:00.439Z,10.9
2017-04-06T09:39:12.652Z,10.82
2017-04-06T09:40:25.160Z,10.83
2017-04-06T09:41:37.698Z,10.87
2017-04-06T09:42:50.248Z,11
2017-04-06T09:44:02.796Z,11.1
2017-04-06T09:45:15.042Z,11.18
2017-04-06T09:46:27.578Z,11.26
2017-04-06T09:47:39.826Z,11.31
2017-04-06T09:48:52.060Z,11.38
2017-04-06T09:50:04.323Z,11.51
2017-04-06T09:51:16.546Z,11.45
2017-04-06T09:52:29.087Z,11.49
2017-04-06T09:53:41.032Z,11.62
2017-04-06T09:54:53.252Z,11.56
2017-04-06T09:56:05.773Z,11.51
2017-04-06T09:57:18.320Z,11.53
2017-04-06T09:58:30.863Z,11.44
2017-04-06T09:59:43.386Z,11.55
2017-04-06T10:00:55.928Z,11.49
2017-04-06T10:02:08.173Z,11.56
2017-04-06T10:03:20.425Z,11.62
2017-04-06T10:04:32.641Z,11.65
2017-04-06T10:05:44.580Z,11.67
2017-04-06T10:06:57.119Z,11.68
2017-04-06T10:08:09.655Z,11.68
2017-04-06T10:09:21.907Z,11.74
2017-04-06T10:10:33.833Z,11.85
2017-04-06T10:11:46.395Z,11.78
2017-04-06T10:12:58.621Z,11.8
2017-04-06T10:14:11.162Z,11.78
2017-04-06T10:15:23.380Z,11.85
2017-04-06T10:16:35.634Z,11.68
2017-04-06T10:17:48.153Z,11.74
2017-04-06T10:19:00.401Z,11.63
2017-04-06T10:20:12.945Z,11.7
2017-04-06T10:21:25.473Z,11.74
2017-04-06T10:22:38.034Z,11.8
2017-04-06T10:23:50.561Z,11.73
2017-04-06T10:25:03.098Z,11.81
2017-04-06T10:26:15.626Z,11.86
2017-04-06T10:27:28.167Z,11.89
2017-04-06T10:28:40.087Z,11.95
2017-04-06T10:29:52.613Z,11.91
2017-04-06T10:31:04.855Z,11.89
2017-04-06T10:32:17.075Z,11.89
2017-04-06T10:33:29.579Z,11.86
2017-04-06T10:34:42.144Z,11.97
2017-04-06T10:35:54.668Z,11.83
2017-04-06T10:37:07.168Z,11.78
2017-04-06T10:38:20.013Z,11.77
2017-04-06T10:39:32.235Z,11.8
2017-04-06T10:40:44.173Z,11.78
2017-04-06T10:41:56.718Z,11.85
2017-04-06T10:43:09.286Z,11.86
2017-04-06T10:44:21.814Z,12
2017-04-06T10:45:33.753Z,11.99
2017-04-06T10:46:46.299Z,12.1
2017-04-06T10:47:58.527Z,12.25
2017-04-06T10:49:11.078Z,12.4
2017-04-06T10:50:23.045Z,12.57
2017-04-06T10:51:35.285Z,12.65
2017-04-06T10:52:47.840Z,12.65
2017-04-06T10:54:00.073Z,12.68
2017-04-06T10:55:12.599Z,12.94
2017-04-06T10:56:25.127Z,13.11
2017-04-06T10:57:37.662Z,13.24
2017-04-06T10:58:49.908Z,13.52
2017-04-06T11:00:02.454Z,13.78
2017-04-06T11:01:14.974Z,13.86
2017-04-06T11:02:27.500Z,14.13
2017-04-06T11:03:39.741Z,14.13
2017-04-06T11:04:52.262Z,14.25
2017-04-06T11:06:04.787Z,14.23
2017-04-06T11:07:17.304Z,14.3
2017-04-06T11:08:29.849Z,14.49
2017-04-06T11:09:42.398Z,14.52
2017-04-06T11:10:54.949Z,14.61
2017-04-06T11:12:07.469Z,14.67
2017-04-06T11:13:19.393Z,14.66
2017-04-06T11:14:31.630Z,14.68
2017-04-06T11:15:44.187Z,14.68
2017-04-06T11:16:56.747Z,14.62
2017-04-06T11:18:09.282Z,14.67
2017-04-06T11:19:21.813Z,14.52
2017-04-06T11:20:34.335Z,14.56
2017-04-06T11:21:47.138Z,14.43
2017-04-06T11:22:59.683Z,14.36
2017-04-06T11:24:12.236Z,14.33
2017-04-06T11:25:24.775Z,14.13
2017-04-06T11:26:36.999Z,14.15
2017-04-06T11:27:49.213Z,14.18
2017-04-06T11:29:01.762Z,14.07
2017-04-06T11:30:14.011Z,14
2017-04-06T11:31:26.301Z,13.97
2017-04-06T11:32:38.553Z,13.83
2017-04-06T11:33:51.081Z,13.79
2017-04-06T11:35:03.638Z,13.86
2017-04-06T11:36:16.209Z,13.86
2017-04-06T11:37:28.755Z,13.76
2017-04-06T11:38:41.300Z,13.62
2017-04-06T11:39:53.529Z,13.58
2017-04-06T11:41:06.053Z,13.6
2017-04-06T11:42:18.288Z,13.65
2017-04-06T11:43:30.843Z,13.68
2017-04-06T11:44:43.114Z,13.91
2017-04-06T11:45:55.684Z,14.16
2017-04-06T11:47:08.257Z,14.48
2017-04-06T11:48:20.790Z,14.74
2017-04-06T11:49:33.055Z,14.9
2017-04-06T11:50:45.640Z,14.73
2017-04-06T11:51:57.880Z,14.68
2017-04-06T11:53:10.426Z,14.73
2017-04-06T11:54:22.681Z,14.66
2017-04-06T11:55:35.225Z,14.66
2017-04-06T11:56:47.149Z,14.79
2017-04-06T11:57:59.392Z,14.96
2017-04-06T11:59:11.914Z,14.94
2017-04-06T12:00:24.478Z,15.04
2017-04-06T12:01:36.722Z,14.99
2017-04-06T12:02:49.253Z,14.99
2017-04-06T12:04:01.787Z,14.92
2017-04-06T12:05:14.361Z,14.74
2017-04-06T12:06:26.914Z,14.43
2017-04-06T12:07:39.486Z,14.43
2017-04-06T12:08:52.036Z,14.38
2017-04-06T12:10:04.574Z,14.25
2017-04-06T12:11:17.087Z,14.12
2017-04-06T12:12:29.643Z,13.95
2017-04-06T12:13:42.182Z,13.93
2017-04-06T12:14:54.707Z,13.82
2017-04-06T12:16:06.921Z,13.75
2017-04-06T12:17:19.469Z,13.76
2017-04-06T12:18:32.013Z,13.73
2017-04-06T12:19:44.537Z,13.79
2017-04-06T12:20:57.080Z,13.8
2017-04-06T12:22:09.610Z,13.8
2017-04-06T12:23:22.346Z,13.78
2017-04-06T12:24:34.299Z,13.7
2017-04-06T12:25:46.549Z,13.8
2017-04-06T12:26:59.070Z,13.8
2017-04-06T12:28:11.306Z,13.73
2017-04-06T12:29:23.852Z,13.78
2017-04-06T12:30:36.382Z,13.8
2017-04-06T12:31:48.904Z,13.86
2017-04-06T12:33:01.446Z,13.91
2017-04-06T12:34:13.945Z,13.89
2017-04-06T12:35:26.140Z,13.93
2017-04-06T12:36:38.355Z,13.87
2017-04-06T12:37:50.907Z,13.91
2017-04-06T12:39:02.843Z,13.89
2017-04-06T12:40:15.407Z,13.95
2017-04-06T12:41:27.939Z,13.8
2017-04-06T12:42:40.484Z,13.83
2017-04-06T12:43:52.994Z,13.82
2017-04-06T12:45:05.225Z,13.78
2017-04-06T12:46:17.797Z,13.8
2017-04-06T12:47:30.026Z,13.8
2017-04-06T12:48:42.563Z,13.91
2017-04-06T12:49:55.084Z,13.87
2017-04-06T12:51:07.613Z,13.91
2017-04-06T12:52:19.851Z,13.94
2017-04-06T12:53:32.371Z,13.97
2017-04-06T12:54:44.572Z,13.94
2017-04-06T12:55:57.140Z,14.08
2017-04-06T12:57:09.689Z,14.04
2017-04-06T12:58:22.189Z,14.07
2017-04-06T12:59:34.710Z,14.07
2017-04-06T13:00:47.256Z,14.11
2017-04-06T13:01:59.517Z,14.03
2017-04-06T13:03:11.748Z,14.08
2017-04-06T13:04:23.989Z,13.91
2017-04-06T13:05:36.491Z,13.89
2017-04-06T13:06:48.459Z,13.89
2017-04-06T13:08:00.980Z,13.93
2017-04-06T13:09:13.530Z,13.86
2017-04-06T13:10:25.797Z,13.86
2017-04-06T13:11:38.068Z,13.91
2017-04-06T13:12:50.607Z,13.94
2017-04-06T13:14:03.127Z,13.86
2017-04-06T13:15:15.069Z,13.82
2017-04-06T13:16:26.978Z,13.85
2017-04-06T13:17:39.498Z,13.78
2017-04-06T13:18:52.036Z,13.75
2017-04-06T13:20:04.541Z,13.68
2017-04-06T13:21:17.082Z,13.65
2017-04-06T13:22:29.605Z,13.64
2017-04-06T13:23:41.846Z,13.67
2017-04-06T13:24:54.389Z,13.68
2017-04-06T13:26:06.643Z,13.64
2017-04-06T13:27:18.540Z,13.67
2017-04-06T13:28:31.075Z,13.7
2017-04-06T13:29:43.308Z,13.49
2017-04-06T13:30:55.829Z,13.49
2017-04-06T13:32:08.363Z,13.49
2017-04-06T13:33:20.884Z,13.57
2017-04-06T13:34:33.457Z,13.57
2017-04-06T13:35:45.376Z,13.55
2017-04-06T13:36:57.647Z,13.61
2017-04-06T13:38:09.891Z,13.68
2017-04-06T13:39:22.438Z,13.68
2017-04-06T13:40:34.651Z,13.78
2017-04-06T13:41:47.205Z,13.83
2017-04-06T13:42:59.729Z,13.83
2017-04-06T13:44:11.954Z,13.86
2017-04-06T13:45:24.215Z,13.86
2017-04-06T13:46:36.750Z,13.91
2017-04-06T13:47:49.295Z,13.91
2017-04-06T13:49:01.543Z,13.95
2017-04-06T13:50:14.062Z,13.97
2017-04-06T13:51:26.301Z,14.05
2017-04-06T13:52:38.229Z,13.95
2017-04-06T13:53:50.776Z,14
2017-04-06T13:55:03.301Z,14.05
2017-04-06T13:56:15.818Z,13.97
2017-04-06T13:57:28.077Z,14.04
2017-04-06T13:58:40.615Z,14.03
2017-04-06T13:59:53.144Z,14.08
2017-04-06T14:01:05.697Z,14.15
2017-04-06T14:02:18.246Z,14.16
2017-04-06T14:03:30.760Z,14.2
2017-04-06T14:04:43.278Z,14.25
2017-04-06T14:05:55.536Z,14.26
2017-04-06T14:07:11.382Z,14.37
2017-04-06T14:08:23.698Z,14.45
2017-04-06T14:09:36.247Z,14.48
2017-04-06T14:10:48.507Z,14.48
2017-04-06T14:12:01.017Z,14.44
2017-04-06T14:13:13.558Z,14.52
2017-04-06T14:14:26.123Z,14.43
2017-04-06T14:15:38.328Z,14.38
2017-04-06T14:16:50.861Z,14.52
2017-04-06T14:18:02.807Z,14.49
2017-04-06T14:19:15.332Z,14.44
2017-04-06T14:20:27.886Z,14.33
2017-04-06T14:21:40.112Z,14.43
2017-04-06T14:22:52.347Z,14.45
2017-04-06T14:24:04.895Z,14.45
2017-04-06T14:25:17.122Z,14.44
2017-04-06T14:26:29.682Z,14.41
2017-04-06T14:27:41.907Z,14.59
2017-04-06T14:28:53.520Z,14.58
2017-04-06T14:30:05.809Z,14.55
2017-04-06T14:31:18.070Z,14.56
2017-04-06T14:32:30.595Z,14.52
2017-04-06T14:33:42.837Z,14.51
2017-04-06T14:34:55.354Z,14.56
2017-04-06T14:36:07.927Z,14.56
2017-04-06T14:37:20.454Z,14.52
2017-04-06T14:38:32.992Z,14.55
2017-04-06T14:39:45.513Z,14.52
2017-04-06T14:40:58.062Z,14.44
2017-04-06T14:42:10.601Z,14.44
2017-04-06T14:43:23.158Z,14.49
2017-04-06T14:44:35.706Z,14.48
2017-04-06T14:45:47.925Z,14.4
2017-04-06T14:47:00.162Z,14.4
2017-04-06T14:48:12.688Z,14.36
2017-04-06T14:49:25.192Z,14.33
2017-04-06T14:50:37.730Z,14.31
2017-04-06T14:51:50.270Z,14.31
2017-04-06T14:53:02.475Z,14.36
2017-04-06T14:54:15.009Z,14.22
2017-04-06T14:55:27.538Z,14.22
2017-04-06T14:56:40.060Z,14.25
2017-04-06T14:57:52.261Z,14.2
2017-04-06T14:59:05.002Z,14.31
2017-04-06T15:00:17.514Z,14.25
2017-04-06T15:01:30.068Z,14.15
2017-04-06T15:02:42.289Z,14.19
2017-04-06T15:03:54.832Z,14.12
2017-04-06T15:05:07.355Z,14.04
2017-04-06T15:06:19.898Z,14.07
2017-04-06T15:07:32.448Z,13.97
2017-04-06T15:08:44.988Z,13.98
2017-04-06T15:09:57.544Z,14
2017-04-06T15:11:10.106Z,14
2017-04-06T15:12:22.635Z,13.98
2017-04-06T15:13:35.173Z,13.94
2017-04-06T15:14:47.726Z,14.01
2017-04-06T15:16:00.244Z,13.97
2017-04-06T15:17:12.785Z,14
2017-04-06T15:18:25.327Z,14
2017-04-06T15:19:37.884Z,14.03
2017-04-06T15:20:50.451Z,14.04
2017-04-06T15:22:02.967Z,14.07
2017-04-06T15:23:15.196Z,14.12
2017-04-06T15:24:27.735Z,14.16
2017-04-06T15:25:40.261Z,14.15
2017-04-06T15:26:52.786Z,14.13
2017-04-06T15:28:05.028Z,14.15
2017-04-06T15:29:17.273Z,14.07
2017-04-06T15:30:29.823Z,14.11
2017-04-06T15:31:42.340Z,14.11
2017-04-06T15:32:54.554Z,14.11
2017-04-06T15:34:07.063Z,14.11
2017-04-06T15:35:19.304Z,14
2017-04-06T15:36:31.802Z,13.98
2017-04-06T15:37:44.347Z,14.04
2017-04-06T15:38:56.587Z,13.98
2017-04-06T15:40:08.808Z,13.93
2017-04-06T15:41:21.358Z,13.94
2017-04-06T15:42:33.876Z,13.97
2017-04-06T15:43:46.428Z,13.98
2017-04-06T15:44:58.970Z,13.94
2017-04-06T15:46:11.184Z,13.97
2017-04-06T15:47:23.729Z,13.91
2017-04-06T15:48:36.276Z,13.83
2017-04-06T15:49:48.799Z,13.87
2017-04-06T15:51:01.332Z,13.94
2017-04-06T15:52:13.845Z,13.87
2017-04-06T15:53:26.091Z,13.86
2017-04-06T15:54:38.634Z,13.94